createdAt,value
2023-08-28T00:01:12.977Z,19.95
2023-08-28T00:03:39.604Z,14.75
2023-08-28T00:06:06.206Z,13.77
2023-08-28T00:08:32.729Z,15.05
2023-08-28T00:10:59.163Z,18.95
2023-08-28T00:13:25.634Z,16.45
2023-08-28T00:15:52.383Z,17.08
2023-08-28T00:18:19.104Z,15.55
2023-08-28T00:20:46.601Z,13.18
2023-08-28T00:23:13.146Z,14.23
2023-08-28T00:25:39.576Z,15.00
2023-08-28T00:28:06.196Z,14.13
2023-08-28T00:30:32.682Z,15.20
2023-08-28T00:32:59.219Z,12.70
2023-08-28T00:35:25.781Z,13.32
2023-08-28T00:37:52.251Z,15.45
2023-08-28T00:40:19.102Z,16.17
2023-08-28T00:42:45.584Z,20.80
2023-08-28T00:45:12.123Z,15.18
2023-08-28T00:47:40.325Z,26.90
2023-08-28T00:50:07.422Z,17.10
2023-08-28T00:52:34.150Z,19.30
2023-08-28T00:55:01.080Z,16.38
2023-08-28T00:57:27.635Z,17.35
2023-08-28T00:59:54.142Z,22.45
2023-08-28T01:02:20.593Z,18.00
2023-08-28T01:04:47.218Z,17.35
2023-08-28T01:07:24.319Z,19.77
2023-08-28T01:10:05.390Z,18.13
2023-08-28T01:12:43.430Z,20.15
2023-08-28T01:15:21.709Z,17.52
2023-08-28T01:17:52.580Z,17.73
2023-08-28T01:22:59.143Z,16.05
2023-08-28T01:25:26.703Z,19.08
2023-08-28T01:27:53.808Z,16.58
2023-08-28T01:30:21.549Z,18.17
2023-08-28T01:32:48.369Z,15.30
2023-08-28T01:35:18.749Z,16.27
2023-08-28T01:38:03.985Z,16.40
2023-08-28T01:40:37.609Z,18.90
2023-08-28T01:43:09.094Z,20.70
2023-08-28T01:45:38.785Z,14.93
2023-08-28T01:48:06.800Z,13.65
2023-08-28T01:50:34.049Z,15.38
2023-08-28T01:53:00.821Z,16.42
2023-08-28T01:55:55.221Z,18.35
2023-08-28T01:58:21.882Z,15.13
2023-08-28T02:00:50.753Z,12.57
2023-08-28T02:03:17.309Z,14.07
2023-08-28T02:05:43.752Z,19.45
2023-08-28T02:08:10.225Z,13.68
2023-08-28T02:10:36.673Z,16.83
2023-08-28T02:13:03.907Z,18.30
2023-08-28T02:15:30.578Z,17.70
2023-08-28T02:17:57.099Z,17.33
2023-08-28T02:20:23.700Z,15.48
2023-08-28T02:22:50.154Z,17.58
2023-08-28T02:25:21.544Z,18.00
2023-08-28T02:27:48.015Z,17.40
2023-08-28T02:30:14.463Z,14.52
2023-08-28T02:32:41.096Z,16.13
2023-08-28T02:35:07.915Z,17.40
2023-08-28T02:37:34.583Z,15.52
2023-08-28T02:40:01.023Z,16.55
2023-08-28T02:42:27.484Z,15.55
2023-08-28T02:44:53.905Z,14.38
2023-08-28T02:47:20.330Z,14.65
2023-08-28T02:49:48.253Z,16.10
2023-08-28T02:52:14.746Z,18.83
2023-08-28T02:54:41.179Z,19.92
2023-08-28T02:57:07.634Z,15.23
2023-08-28T02:59:34.100Z,17.40
2023-08-28T03:02:00.685Z,21.75
2023-08-28T03:04:27.224Z,20.73
2023-08-28T03:06:53.678Z,18.77
2023-08-28T03:09:20.166Z,20.45
2023-08-28T03:11:46.864Z,17.83
2023-08-28T03:14:19.956Z,19.05
2023-08-28T03:16:46.382Z,15.75
2023-08-28T03:19:12.812Z,18.75
2023-08-28T03:21:40.702Z,18.27
2023-08-28T03:24:07.825Z,17.98
2023-08-28T03:26:34.862Z,20.20
2023-08-28T03:29:01.678Z,20.05
2023-08-28T03:31:28.707Z,21.67
2023-08-28T03:33:55.231Z,17.63
2023-08-28T03:36:21.758Z,23.42
2023-08-28T03:38:48.193Z,16.73
2023-08-28T03:41:14.633Z,17.77
2023-08-28T03:43:41.166Z,18.27
2023-08-28T03:46:07.754Z,18.75
2023-08-28T03:48:34.563Z,23.73
2023-08-28T03:51:01.211Z,20.52
2023-08-28T03:53:28.207Z,17.33
2023-08-28T03:55:54.701Z,17.15
2023-08-28T03:58:23.160Z,17.42
2023-08-28T04:00:55.143Z,15.85
2023-08-28T04:03:21.818Z,19.58
2023-08-28T04:05:49.741Z,17.55
2023-08-28T04:08:16.556Z,18.55
2023-08-28T04:10:43.822Z,15.65
2023-08-28T04:13:10.325Z,18.52
2023-08-28T04:15:37.238Z,18.13
2023-08-28T04:18:03.957Z,19.17
2023-08-28T04:20:31.444Z,17.73
2023-08-28T04:22:57.912Z,18.80
2023-08-28T04:25:24.897Z,18.92
2023-08-28T04:27:51.378Z,20.33
2023-08-28T04:30:20.719Z,19.40
2023-08-28T04:32:47.309Z,17.60
2023-08-28T04:35:13.957Z,18.88
2023-08-28T04:37:41.179Z,28.05
2023-08-28T04:40:08.565Z,19.75
2023-08-28T04:42:35.015Z,18.58
2023-08-28T04:45:01.433Z,20.83
2023-08-28T04:47:28.075Z,19.65
2023-08-28T04:49:54.804Z,19.90
2023-08-28T04:52:23.160Z,16.00
2023-08-28T04:54:49.593Z,16.30
2023-08-28T04:57:18.981Z,21.08
2023-08-28T04:59:45.503Z,18.70
2023-08-28T05:02:12.006Z,15.95
2023-08-28T05:04:38.456Z,14.68
2023-08-28T05:07:06.280Z,16.02
2023-08-28T05:09:32.768Z,13.60
2023-08-28T05:11:59.214Z,13.52
2023-08-28T05:14:25.831Z,14.95
2023-08-28T05:16:52.284Z,13.88
2023-08-28T05:19:18.727Z,13.45
2023-08-28T05:21:48.915Z,14.05
2023-08-28T05:24:18.653Z,12.07
2023-08-28T05:26:45.101Z,16.50
2023-08-28T05:29:11.699Z,13.23
2023-08-28T05:31:38.379Z,12.77
2023-08-28T05:34:04.940Z,12.30
2023-08-28T05:36:31.368Z,13.65
2023-08-28T05:38:57.813Z,11.65
2023-08-28T05:41:24.318Z,12.43
2023-08-28T05:43:50.759Z,11.27
2023-08-28T05:46:17.390Z,13.35
2023-08-28T05:48:47.373Z,15.65
2023-08-28T05:51:13.811Z,13.13
2023-08-28T05:53:42.552Z,11.80
2023-08-28T05:56:16.806Z,16.85
2023-08-28T05:58:44.511Z,13.93
2023-08-28T06:01:11.159Z,13.30
2023-08-28T06:03:40.777Z,15.73
2023-08-28T06:06:07.277Z,13.57
2023-08-28T06:08:33.737Z,16.85
2023-08-28T06:11:00.183Z,15.52
2023-08-28T06:13:27.046Z,14.27
2023-08-28T06:15:57.421Z,14.23
2023-08-28T06:18:24.401Z,17.25
2023-08-28T06:20:50.869Z,13.52
2023-08-28T06:23:18.736Z,15.60
2023-08-28T06:25:47.565Z,12.93
2023-08-28T06:28:14.665Z,13.27
2023-08-28T06:30:41.450Z,15.88
2023-08-28T06:33:08.135Z,15.82
2023-08-28T06:35:34.906Z,16.30
2023-08-28T06:38:01.558Z,13.38
2023-08-28T06:40:28.079Z,14.35
2023-08-28T06:42:54.804Z,14.30
2023-08-28T06:45:21.277Z,16.10
2023-08-28T06:47:48.235Z,14.45
2023-08-28T06:50:14.904Z,13.25
2023-08-28T06:52:41.343Z,15.35
2023-08-28T06:55:17.060Z,15.07
2023-08-28T06:57:43.551Z,16.63
2023-08-28T07:00:12.115Z,12.75
2023-08-28T07:02:38.839Z,12.13
2023-08-28T07:05:08.867Z,13.80
2023-08-28T07:07:35.387Z,14.90
2023-08-28T07:10:02.336Z,15.77
2023-08-28T07:12:28.790Z,12.25
2023-08-28T07:15:28.066Z,15.95
2023-08-28T07:17:54.733Z,12.55
2023-08-28T07:20:22.658Z,14.77
2023-08-28T07:22:49.208Z,13.30
2023-08-28T07:25:22.758Z,13.23
2023-08-28T07:27:53.101Z,10.95
2023-08-28T07:30:19.977Z,13.70
2023-08-28T07:32:46.720Z,12.45
2023-08-28T07:35:13.314Z,14.55
2023-08-28T07:37:39.850Z,14.40
2023-08-28T07:40:07.600Z,10.65
2023-08-28T07:42:34.634Z,12.05
2023-08-28T07:45:01.133Z,10.70
2023-08-28T07:47:28.281Z,10.75
2023-08-28T07:49:55.734Z,13.02
2023-08-28T07:52:25.269Z,11.40
2023-08-28T07:54:51.784Z,12.02
2023-08-28T07:57:21.061Z,12.30
2023-08-28T07:59:47.628Z,11.15
2023-08-28T08:02:14.398Z,13.45
2023-08-28T08:04:40.864Z,14.20
2023-08-28T08:07:07.341Z,12.07
2023-08-28T08:09:33.778Z,11.63
2023-08-28T08:12:00.248Z,13.10
2023-08-28T08:14:26.688Z,13.70
2023-08-28T08:16:53.135Z,9.82
2023-08-28T08:19:19.568Z,12.70
2023-08-28T08:21:46.133Z,15.90
2023-08-28T08:24:12.625Z,12.55
2023-08-28T08:26:39.112Z,11.05
2023-08-28T08:29:05.682Z,9.48
2023-08-28T08:31:32.453Z,9.95
2023-08-28T08:33:59.114Z,11.57
2023-08-28T08:36:25.584Z,11.75
2023-08-28T08:38:52.056Z,10.73
2023-08-28T08:41:21.610Z,9.77
2023-08-28T08:43:48.213Z,12.77
2023-08-28T08:46:14.994Z,13.23
2023-08-28T08:48:42.987Z,11.10
2023-08-28T08:51:09.639Z,10.73
2023-08-28T08:53:44.129Z,8.07
2023-08-28T08:56:14.048Z,7.30
2023-08-28T08:58:41.600Z,13.43
2023-08-28T09:01:08.931Z,14.98
2023-08-28T09:03:35.820Z,13.77
2023-08-28T09:06:06.487Z,10.43
2023-08-28T09:08:35.646Z,10.55
2023-08-28T09:11:02.385Z,9.90
2023-08-28T09:13:28.909Z,8.75
2023-08-28T09:15:55.403Z,10.60
2023-08-28T09:18:22.232Z,6.47
2023-08-28T09:21:13.516Z,6.45
2023-08-28T09:23:51.873Z,7.60
2023-08-28T09:26:23.263Z,7.32
2023-08-28T09:29:00.305Z,3.60
2023-08-28T09:31:44.085Z,3.38
2023-08-28T09:34:10.844Z,4.78
2023-08-28T09:36:44.120Z,4.55
2023-08-28T09:39:13.337Z,4.60
2023-08-28T09:41:41.056Z,2.88
2023-08-28T09:44:07.603Z,3.00
2023-08-28T09:46:36.471Z,5.68
2023-08-28T09:49:03.359Z,2.28
2023-08-28T09:51:44.257Z,1.48
2023-08-28T09:56:39.438Z,3.50
2023-08-28T09:59:08.018Z,3.45
2023-08-28T10:01:36.334Z,6.18
2023-08-28T10:04:08.253Z,7.45
2023-08-28T10:06:36.338Z,6.13
2023-08-28T10:09:06.829Z,3.72
2023-08-28T10:11:40.969Z,7.45
2023-08-28T10:14:08.190Z,6.35
2023-08-28T10:16:42.378Z,8.38
2023-08-28T10:19:18.426Z,10.68
2023-08-28T10:21:47.778Z,9.95
2023-08-28T10:24:18.248Z,9.10
2023-08-28T10:26:45.539Z,8.57
2023-08-28T10:29:12.752Z,5.82
2023-08-28T10:31:40.691Z,9.02
2023-08-28T10:34:08.726Z,6.32
2023-08-28T10:36:55.358Z,9.50
2023-08-28T10:39:28.485Z,7.55
2023-08-28T10:41:56.152Z,7.75
2023-08-28T10:44:23.853Z,7.22
2023-08-28T10:46:54.951Z,6.00
2023-08-28T10:49:21.494Z,6.45
2023-08-28T10:51:48.048Z,8.02
2023-08-28T10:54:14.506Z,5.25
2023-08-28T10:56:41.216Z,5.65
2023-08-28T10:59:24.453Z,6.28
2023-08-28T11:01:56.077Z,6.57
2023-08-28T11:04:23.873Z,5.78
2023-08-28T11:06:50.678Z,6.93
2023-08-28T11:09:31.684Z,10.07
2023-08-28T11:12:01.523Z,6.32
2023-08-28T11:17:08.901Z,4.70
2023-08-28T11:19:57.052Z,4.30
2023-08-28T11:22:40.163Z,4.97
2023-08-28T11:25:12.803Z,5.13
2023-08-28T11:27:51.252Z,5.05
2023-08-28T11:30:21.113Z,4.82
2023-08-28T11:32:53.853Z,6.18
2023-08-28T11:35:24.745Z,4.22
2023-08-28T11:37:55.774Z,2.63
2023-08-28T11:40:24.288Z,3.85
2023-08-28T11:43:04.685Z,1.60
2023-08-28T11:45:31.595Z,3.78
2023-08-28T11:48:07.728Z,1.77
2023-08-28T11:50:35.266Z,2.38
2023-08-28T11:53:05.972Z,3.33
2023-08-28T11:55:35.764Z,2.70
2023-08-28T11:58:07.218Z,1.55
2023-08-28T12:00:33.812Z,3.20
2023-08-28T12:03:02.931Z,0.88
2023-08-28T12:05:30.148Z,1.60
2023-08-28T12:07:56.604Z,1.60
2023-08-28T12:10:23.449Z,1.45
2023-08-28T12:12:55.337Z,2.53
2023-08-28T12:15:34.116Z,1.05
2023-08-28T12:18:02.751Z,1.27
2023-08-28T12:20:31.739Z,2.08
2023-08-28T12:22:59.234Z,3.97
2023-08-28T12:25:33.506Z,4.32
2023-08-28T12:28:10.700Z,2.50
2023-08-28T12:30:40.916Z,1.30
2023-08-28T12:33:08.867Z,1.52
2023-08-28T12:35:39.729Z,7.28
2023-08-28T12:38:06.677Z,1.30
2023-08-28T12:40:37.261Z,2.63
2023-08-28T12:43:15.084Z,2.00
2023-08-28T12:45:43.238Z,3.15
2023-08-28T12:48:09.812Z,2.65
2023-08-28T12:50:36.934Z,2.13
2023-08-28T12:53:05.879Z,3.38
2023-08-28T12:55:32.745Z,3.65
2023-08-28T12:57:59.170Z,2.78
2023-08-28T13:00:26.292Z,2.72
2023-08-28T13:02:52.952Z,2.47
2023-08-28T13:05:19.660Z,4.15
2023-08-28T13:07:46.111Z,1.95
2023-08-28T13:10:13.277Z,4.22
2023-08-28T13:12:39.751Z,2.45
2023-08-28T13:15:06.696Z,3.58
2023-08-28T13:17:33.218Z,2.55
2023-08-28T13:19:59.737Z,2.35
2023-08-28T13:22:26.187Z,2.20
2023-08-28T13:24:52.647Z,2.47
2023-08-28T13:27:19.134Z,5.47
2023-08-28T13:29:45.629Z,2.60
2023-08-28T13:32:12.114Z,3.13
2023-08-28T13:34:38.621Z,2.10
2023-08-28T13:37:06.825Z,2.30
2023-08-28T13:39:33.836Z,1.77
2023-08-28T13:42:00.458Z,2.22
2023-08-28T13:44:28.414Z,2.05
2023-08-28T13:46:57.051Z,1.05
2023-08-28T13:49:23.572Z,2.50
2023-08-28T13:51:52.705Z,1.77
2023-08-28T13:54:19.678Z,1.30
2023-08-28T13:56:46.705Z,2.35
2023-08-28T13:59:13.152Z,1.27
2023-08-28T14:01:41.904Z,1.85
2023-08-28T14:04:08.530Z,1.35
2023-08-28T14:06:36.232Z,2.88
2023-08-28T14:09:03.943Z,1.80
2023-08-28T14:11:30.408Z,1.98
2023-08-28T14:13:56.896Z,1.58
2023-08-28T14:16:23.341Z,1.17
2023-08-28T14:18:49.816Z,2.65
2023-08-28T14:21:16.261Z,2.78
2023-08-28T14:23:43.776Z,2.38
2023-08-28T14:26:10.270Z,1.30
2023-08-28T14:28:36.785Z,3.03
2023-08-28T14:31:04.004Z,1.48
2023-08-28T14:33:30.515Z,2.35
2023-08-28T14:35:57.070Z,0.80
2023-08-28T14:38:23.572Z,1.30
2023-08-28T14:40:52.307Z,1.80
2023-08-28T14:43:19.860Z,1.88
2023-08-28T14:45:46.364Z,1.75
2023-08-28T14:48:13.945Z,4.53
2023-08-28T14:50:40.670Z,0.95
2023-08-28T14:53:07.403Z,1.00
2023-08-28T14:55:34.224Z,2.50
2023-08-28T14:58:03.593Z,1.23
2023-08-28T15:00:30.019Z,0.60
2023-08-28T15:02:57.099Z,2.08
2023-08-28T15:05:24.151Z,1.65
2023-08-28T15:07:53.117Z,1.73
2023-08-28T15:10:24.071Z,1.27
2023-08-28T15:12:50.520Z,1.23
2023-08-28T15:15:17.113Z,1.38
2023-08-28T15:17:43.608Z,2.03
2023-08-28T15:20:10.359Z,1.42
2023-08-28T15:22:38.214Z,3.00
2023-08-28T15:25:05.398Z,1.50
2023-08-28T15:27:31.895Z,1.42
2023-08-28T15:29:58.610Z,2.38
2023-08-28T15:32:25.868Z,1.35
2023-08-28T15:34:53.071Z,3.45
2023-08-28T15:37:19.552Z,1.55
2023-08-28T15:39:46.045Z,1.00
2023-08-28T15:42:12.525Z,1.13
2023-08-28T15:44:39.035Z,1.83
2023-08-28T15:47:05.814Z,3.13
2023-08-28T15:49:32.263Z,2.75
2023-08-28T15:51:58.742Z,4.07
2023-08-28T15:54:25.204Z,8.68
2023-08-28T15:56:51.640Z,6.40
2023-08-28T15:59:18.364Z,7.68
2023-08-28T16:01:47.928Z,6.68
2023-08-28T16:04:14.470Z,4.90
2023-08-28T16:06:40.973Z,3.55
2023-08-28T16:09:07.507Z,3.58
2023-08-28T16:11:34.434Z,4.82
2023-08-28T16:14:01.754Z,3.03
2023-08-28T16:16:28.959Z,2.17
2023-08-28T16:18:55.650Z,2.70
2023-08-28T16:21:22.125Z,1.90
2023-08-28T16:23:48.671Z,2.08
2023-08-28T16:26:15.144Z,2.47
2023-08-28T16:28:41.629Z,2.22
2023-08-28T16:31:10.662Z,3.08
2023-08-28T16:33:37.527Z,1.50
2023-08-28T16:36:04.353Z,2.72
2023-08-28T16:38:30.838Z,1.98
2023-08-28T16:40:57.325Z,2.10
2023-08-28T16:43:23.765Z,2.33
2023-08-28T16:45:50.300Z,1.58
2023-08-28T16:48:16.851Z,2.08
2023-08-28T16:50:46.040Z,4.03
2023-08-28T16:53:13.593Z,3.15
2023-08-28T16:55:42.317Z,3.42
2023-08-28T16:58:09.146Z,3.47
2023-08-28T17:00:36.221Z,3.05
2023-08-28T17:03:04.019Z,1.88
2023-08-28T17:05:32.052Z,2.83
2023-08-28T17:07:59.770Z,4.25
2023-08-28T17:10:30.339Z,1.70
2023-08-28T17:12:57.913Z,2.85
2023-08-28T17:15:24.537Z,3.60
2023-08-28T17:17:51.322Z,1.90
2023-08-28T17:20:18.144Z,2.08
2023-08-28T17:22:44.621Z,1.75
2023-08-28T17:25:17.006Z,5.93
2023-08-28T17:27:43.528Z,2.17
2023-08-28T17:30:10.434Z,2.75
2023-08-28T17:32:40.185Z,4.88
2023-08-28T17:35:09.979Z,2.65
2023-08-28T17:37:36.799Z,4.50
2023-08-28T17:40:05.428Z,1.35
2023-08-28T17:42:32.069Z,3.03
2023-08-28T17:44:58.550Z,2.08
2023-08-28T17:47:25.062Z,1.85
2023-08-28T17:49:55.016Z,2.13
2023-08-28T17:52:27.896Z,2.28
2023-08-28T17:55:01.137Z,4.15
2023-08-28T17:57:36.827Z,4.70
2023-08-28T18:00:04.885Z,2.15
2023-08-28T18:02:48.136Z,4.25
2023-08-28T18:05:18.512Z,3.58
2023-08-28T18:07:45.040Z,3.50
2023-08-28T18:10:11.497Z,3.13
2023-08-28T18:12:38.740Z,3.80
2023-08-28T18:15:05.611Z,2.28
2023-08-28T18:17:32.190Z,1.90
2023-08-28T18:20:13.169Z,1.67
2023-08-28T18:22:40.001Z,1.10
2023-08-28T18:25:06.920Z,1.23
2023-08-28T18:27:33.355Z,1.65
2023-08-28T18:29:59.865Z,1.85
2023-08-28T18:32:26.301Z,3.90
2023-08-28T18:34:52.796Z,3.88
2023-08-28T18:37:19.770Z,2.17
2023-08-28T18:39:46.349Z,4.57
2023-08-28T18:42:12.820Z,2.63
2023-08-28T18:44:39.316Z,2.40
2023-08-28T18:47:06.162Z,3.40
2023-08-28T18:49:32.584Z,5.15
2023-08-28T18:51:59.076Z,2.28
2023-08-28T18:54:25.685Z,4.97
2023-08-28T18:56:52.142Z,2.78
2023-08-28T18:59:18.628Z,2.95
2023-08-28T19:01:45.115Z,3.75
2023-08-28T19:04:11.606Z,3.45
2023-08-28T19:06:38.101Z,3.15
2023-08-28T19:09:05.745Z,5.47
2023-08-28T19:11:32.406Z,2.85
2023-08-28T19:13:58.910Z,3.35
2023-08-28T19:16:25.485Z,5.80
2023-08-28T19:18:51.922Z,3.10
2023-08-28T19:21:18.486Z,2.55
2023-08-28T19:23:44.985Z,6.40
2023-08-28T19:26:11.512Z,1.83
2023-08-28T19:28:37.976Z,2.17
2023-08-28T19:31:05.896Z,2.10
2023-08-28T19:33:32.359Z,2.03
2023-08-28T19:35:58.819Z,2.45
2023-08-28T19:38:25.370Z,3.92
2023-08-28T19:40:51.837Z,2.22
2023-08-28T19:43:18.922Z,5.40
2023-08-28T19:45:45.552Z,2.90
2023-08-28T19:48:12.135Z,5.40
2023-08-28T19:50:38.706Z,2.20
2023-08-28T19:53:07.810Z,2.20
2023-08-28T19:55:35.604Z,3.47
2023-08-28T19:58:02.917Z,3.38
2023-08-28T20:00:30.150Z,2.30
2023-08-28T20:02:56.809Z,2.13
2023-08-28T20:05:23.327Z,2.28
2023-08-28T20:07:49.788Z,2.10
2023-08-28T20:10:16.363Z,1.60
2023-08-28T20:12:42.907Z,2.97
2023-08-28T20:15:09.567Z,2.17
2023-08-28T20:17:36.155Z,5.18
2023-08-28T20:20:05.873Z,2.80
2023-08-28T20:22:32.319Z,4.00
2023-08-28T20:24:58.818Z,3.33
2023-08-28T20:27:25.276Z,3.28
2023-08-28T20:29:51.805Z,1.98
2023-08-28T20:32:18.308Z,3.05
2023-08-28T20:34:44.850Z,4.22
2023-08-28T20:37:11.307Z,2.05
2023-08-28T20:39:38.151Z,1.95
2023-08-28T20:42:05.388Z,3.17
2023-08-28T20:44:33.491Z,3.03
2023-08-28T20:47:00.091Z,3.25
2023-08-28T20:49:26.572Z,3.10
2023-08-28T20:51:54.220Z,2.78
2023-08-28T20:54:21.082Z,3.05
2023-08-28T20:56:47.817Z,2.70
2023-08-28T20:59:16.190Z,2.90
2023-08-28T21:01:42.812Z,5.78
2023-08-28T21:04:09.255Z,3.03
2023-08-28T21:06:36.270Z,4.30
2023-08-28T21:09:02.817Z,3.10
2023-08-28T21:11:29.453Z,2.03
2023-08-28T21:13:55.928Z,3.45
2023-08-28T21:16:22.412Z,1.77
2023-08-28T21:18:48.896Z,1.00
2023-08-28T21:21:15.401Z,2.53
2023-08-28T21:23:41.883Z,2.20
2023-08-28T21:26:08.317Z,3.30
2023-08-28T21:28:35.901Z,5.28
2023-08-28T21:31:04.484Z,4.72
2023-08-28T21:33:32.886Z,4.15
2023-08-28T21:36:00.637Z,2.38
2023-08-28T21:38:27.461Z,1.85
2023-08-28T21:40:55.286Z,2.80
2023-08-28T21:43:22.331Z,1.17
2023-08-28T21:46:03.492Z,3.20
2023-08-28T21:50:58.785Z,3.40
2023-08-28T21:53:25.239Z,0.70
2023-08-28T21:55:54.651Z,1.13
2023-08-28T21:58:22.239Z,1.10
2023-08-28T22:00:49.375Z,1.40
2023-08-28T22:03:15.972Z,0.88
2023-08-28T22:05:46.510Z,2.03
2023-08-28T22:08:13.988Z,0.88
2023-08-28T22:10:42.676Z,1.08
2023-08-28T22:13:09.922Z,1.67
2023-08-28T22:15:41.388Z,3.47
2023-08-28T22:18:12.600Z,0.98
2023-08-28T22:20:45.098Z,3.55
2023-08-28T22:23:14.883Z,2.72
2023-08-28T22:25:42.440Z,4.85
2023-08-28T22:28:08.955Z,3.42
2023-08-28T22:30:35.896Z,2.08
2023-08-28T22:33:02.645Z,2.08
2023-08-28T22:35:29.482Z,2.10
2023-08-28T22:37:55.938Z,0.88
2023-08-28T22:40:22.700Z,2.38
2023-08-28T22:42:49.719Z,0.20
2023-08-28T22:45:17.418Z,0.65
2023-08-28T22:47:44.172Z,3.22
2023-08-28T22:50:10.690Z,2.28
2023-08-28T22:52:37.177Z,1.70
2023-08-28T22:55:04.664Z,0.60
2023-08-28T22:57:31.207Z,1.40
2023-08-28T22:59:57.746Z,0.93
2023-08-28T23:02:24.259Z,1.92
2023-08-28T23:04:52.479Z,1.58
2023-08-28T23:07:19.662Z,2.30
2023-08-28T23:09:46.142Z,5.65
2023-08-28T23:12:12.819Z,4.03
2023-08-28T23:14:39.296Z,9.32
2023-08-28T23:17:05.848Z,5.95
2023-08-28T23:19:32.941Z,5.90
2023-08-28T23:21:59.430Z,6.25
2023-08-28T23:24:26.149Z,7.25
2023-08-28T23:26:52.704Z,6.15
2023-08-28T23:29:19.871Z,6.70
2023-08-28T23:31:49.153Z,2.58
2023-08-28T23:34:16.676Z,1.48
2023-08-28T23:36:45.164Z,3.45
2023-08-28T23:39:12.443Z,3.85
2023-08-28T23:41:38.976Z,1.70
2023-08-28T23:44:05.718Z,3.38
2023-08-28T23:46:32.161Z,3.30
2023-08-28T23:48:58.652Z,5.35
2023-08-28T23:51:25.130Z,2.30
2023-08-28T23:53:51.598Z,2.53
2023-08-28T23:56:18.027Z,2.97
2023-08-28T23:58:44.489Z,4.20
